createdAt,value
2018-12-29T00:01:02.282Z,78.13
2018-12-29T00:03:32.408Z,78.23
2018-12-29T00:06:02.538Z,78.28
2018-12-29T00:08:32.674Z,78.48
2018-12-29T00:11:02.784Z,78.59
2018-12-29T00:13:33.256Z,78.86
2018-12-29T00:16:03.364Z,78.86
2018-12-29T00:18:33.547Z,78.88
2018-12-29T00:21:03.787Z,78.68
2018-12-29T00:23:34.253Z,78.73
2018-12-29T00:26:04.999Z,79.02
2018-12-29T00:28:35.135Z,78.99
2018-12-29T00:31:05.265Z,78.96
2018-12-29T00:33:35.661Z,78.96
2018-12-29T00:36:07.305Z,79.05
2018-12-29T00:38:37.935Z,79.09
2018-12-29T00:41:08.055Z,79.08
2018-12-29T00:43:38.585Z,79.05
2018-12-29T00:46:08.708Z,79.06
2018-12-29T00:48:39.132Z,79.00
2018-12-29T00:51:09.228Z,78.85
2018-12-29T00:53:39.375Z,78.89
2018-12-29T00:56:09.465Z,78.78
2018-12-29T00:58:39.914Z,78.76
2018-12-29T01:01:10.206Z,78.98
2018-12-29T01:03:40.333Z,79.15
2018-12-29T01:06:10.432Z,79.50
2018-12-29T01:08:40.598Z,79.17
2018-12-29T01:11:10.725Z,79.30
2018-12-29T01:13:41.148Z,79.32
2018-12-29T01:16:11.240Z,79.22
2018-12-29T01:18:41.451Z,79.53
2018-12-29T01:21:11.575Z,79.52
2018-12-29T01:23:42.010Z,79.50
2018-12-29T01:26:12.173Z,79.54
2018-12-29T01:28:42.283Z,79.48
2018-12-29T01:31:12.395Z,79.54
2018-12-29T01:33:42.550Z,79.39
2018-12-29T01:36:12.673Z,79.53
2018-12-29T01:38:43.099Z,79.47
2018-12-29T01:41:13.194Z,79.30
2018-12-29T01:43:43.598Z,79.29
2018-12-29T01:46:13.703Z,79.12
2018-12-29T01:48:44.154Z,79.08
2018-12-29T01:51:14.251Z,79.20
2018-12-29T01:53:48.772Z,79.17
2018-12-29T01:56:18.872Z,79.07
2018-12-29T01:58:49.329Z,79.07
2018-12-29T02:01:19.433Z,78.93
2018-12-29T02:03:49.605Z,78.74
2018-12-29T02:06:19.764Z,78.08
2018-12-29T02:08:49.897Z,78.38
2018-12-29T02:11:19.990Z,78.27
2018-12-29T02:13:50.455Z,78.14
2018-12-29T02:16:20.610Z,78.43
2018-12-29T02:18:51.204Z,78.60
2018-12-29T02:21:21.328Z,78.64
2018-12-29T02:23:51.457Z,78.72
2018-12-29T02:26:21.557Z,78.60
2018-12-29T02:28:51.683Z,78.64
2018-12-29T02:31:21.797Z,78.60
2018-12-29T02:33:52.223Z,78.67
2018-12-29T02:36:22.348Z,78.64
2018-12-29T02:38:52.476Z,78.75
2018-12-29T02:41:22.587Z,78.84
2018-12-29T02:43:53.009Z,78.83
2018-12-29T02:46:23.131Z,78.86
2018-12-29T02:48:53.396Z,78.89
2018-12-29T02:51:23.503Z,78.91
2018-12-29T02:53:53.682Z,78.92
2018-12-29T02:56:23.780Z,78.98
2018-12-29T02:58:53.916Z,78.85
2018-12-29T03:01:24.285Z,78.79
2018-12-29T03:03:54.782Z,78.90
2018-12-29T03:06:24.896Z,78.99
2018-12-29T03:08:55.291Z,78.86
2018-12-29T03:11:25.410Z,78.79
2018-12-29T03:13:55.869Z,78.73
2018-12-29T03:16:25.967Z,78.70
2018-12-29T03:18:56.429Z,78.67
2018-12-29T03:21:26.530Z,78.61
2018-12-29T03:23:56.939Z,78.57
2018-12-29T03:26:27.037Z,78.58
2018-12-29T03:28:57.550Z,78.58
2018-12-29T03:31:27.655Z,78.52
2018-12-29T03:33:57.777Z,78.49
2018-12-29T03:36:27.884Z,78.35
2018-12-29T03:38:58.395Z,78.45
2018-12-29T03:41:28.518Z,78.50
2018-12-29T03:43:58.924Z,78.54
2018-12-29T03:46:29.250Z,78.67
2018-12-29T03:48:59.710Z,78.78
2018-12-29T03:51:29.803Z,78.63
2018-12-29T03:54:00.852Z,78.64
2018-12-29T03:56:30.959Z,78.62
2018-12-29T03:59:01.506Z,78.61
2018-12-29T04:01:32.558Z,78.32
2018-12-29T04:04:02.968Z,78.29
2018-12-29T04:06:33.269Z,78.15
2018-12-29T04:09:34.378Z,78.12
2018-12-29T04:12:10.608Z,78.48
2018-12-29T04:14:40.745Z,78.24
2018-12-29T04:17:10.842Z,78.19
2018-12-29T04:19:41.028Z,78.11
2018-12-29T04:22:11.148Z,77.79
2018-12-29T04:24:41.533Z,77.50
2018-12-29T04:27:11.633Z,77.61
2018-12-29T04:29:41.758Z,77.55
2018-12-29T04:32:11.871Z,77.75
2018-12-29T04:34:41.997Z,78.11
2018-12-29T04:37:12.109Z,78.17
2018-12-29T04:39:42.831Z,77.98
2018-12-29T04:42:12.944Z,77.80
2018-12-29T04:44:43.346Z,77.74
2018-12-29T04:47:13.449Z,77.83
2018-12-29T04:49:43.585Z,77.75
2018-12-29T04:52:13.683Z,77.79
2018-12-29T04:54:44.157Z,77.86
2018-12-29T04:57:15.234Z,77.77
2018-12-29T04:59:45.366Z,77.68
2018-12-29T05:02:15.461Z,77.72
2018-12-29T05:04:45.590Z,77.72
2018-12-29T05:07:16.578Z,77.75
2018-12-29T05:09:46.707Z,77.66
2018-12-29T05:12:16.860Z,77.64
2018-12-29T05:14:47.366Z,77.58
2018-12-29T05:17:17.473Z,77.54
2018-12-29T05:19:47.659Z,77.60
2018-12-29T05:22:17.772Z,77.65
2018-12-29T05:24:48.165Z,77.61
2018-12-29T05:27:18.258Z,77.84
2018-12-29T05:29:48.389Z,78.01
2018-12-29T05:32:18.779Z,77.95
2018-12-29T05:34:49.179Z,77.95
2018-12-29T05:37:19.303Z,77.68
2018-12-29T05:39:49.786Z,77.55
2018-12-29T05:42:20.350Z,77.53
2018-12-29T05:44:50.475Z,77.53
2018-12-29T05:47:20.570Z,77.64
2018-12-29T05:49:50.818Z,77.63
2018-12-29T05:52:20.915Z,77.64
2018-12-29T05:54:51.338Z,77.61
2018-12-29T05:57:21.475Z,77.63
2018-12-29T05:59:51.968Z,77.65
2018-12-29T06:02:22.087Z,77.55
2018-12-29T06:04:52.506Z,77.50
2018-12-29T06:07:22.621Z,77.43
2018-12-29T06:09:52.855Z,77.88
2018-12-29T06:12:23.026Z,77.81
2018-12-29T06:14:53.232Z,77.80
2018-12-29T06:17:23.347Z,77.45
2018-12-29T06:19:53.949Z,77.71
2018-12-29T06:22:24.051Z,77.69
2018-12-29T06:24:54.489Z,77.50
2018-12-29T06:27:24.608Z,77.30
2018-12-29T06:29:54.748Z,77.25
2018-12-29T06:32:25.946Z,77.43
2018-12-29T06:34:56.067Z,77.37
2018-12-29T06:37:26.214Z,77.08
2018-12-29T06:39:56.640Z,77.24
2018-12-29T06:42:26.748Z,76.92
2018-12-29T06:44:57.197Z,76.82
2018-12-29T06:47:27.371Z,76.78
2018-12-29T06:49:57.458Z,76.77
2018-12-29T06:52:27.573Z,77.10
2018-12-29T06:54:58.088Z,77.02
2018-12-29T06:57:28.253Z,76.95
2018-12-29T06:59:58.719Z,76.84
2018-12-29T07:02:28.855Z,76.92
2018-12-29T07:04:58.987Z,76.98
2018-12-29T07:07:29.070Z,76.92
2018-12-29T07:09:59.502Z,77.02
2018-12-29T07:12:29.700Z,76.98
2018-12-29T07:14:59.859Z,77.08
2018-12-29T07:17:30.008Z,77.01
2018-12-29T07:20:00.595Z,77.20
2018-12-29T07:22:30.685Z,77.13
2018-12-29T07:25:02.239Z,77.07
2018-12-29T07:27:32.340Z,77.05
2018-12-29T07:30:02.815Z,77.01
2018-12-29T07:32:32.985Z,76.89
2018-12-29T07:35:03.207Z,76.77
2018-12-29T07:37:33.305Z,76.75
2018-12-29T07:40:03.906Z,76.67
2018-12-29T07:42:34.014Z,76.70
2018-12-29T07:45:04.299Z,76.75
2018-12-29T07:47:34.413Z,76.84
2018-12-29T07:50:04.849Z,76.76
2018-12-29T07:52:34.953Z,76.79
2018-12-29T07:55:05.965Z,76.81
2018-12-29T07:57:36.067Z,76.83
2018-12-29T08:00:07.062Z,76.74
2018-12-29T08:02:37.153Z,76.72
2018-12-29T08:05:07.652Z,76.68
2018-12-29T08:07:37.795Z,76.90
2018-12-29T08:10:08.180Z,76.75
2018-12-29T08:12:38.307Z,76.74
2018-12-29T08:15:08.745Z,76.55
2018-12-29T08:17:38.842Z,76.77
2018-12-29T08:20:09.370Z,76.84
2018-12-29T08:22:39.564Z,76.81
2018-12-29T08:25:09.721Z,76.97
2018-12-29T08:27:40.752Z,77.05
2018-12-29T08:30:10.960Z,77.04
2018-12-29T08:32:41.060Z,76.79
2018-12-29T08:35:11.219Z,76.75
2018-12-29T08:37:41.332Z,76.92
2018-12-29T08:40:11.464Z,76.56
2018-12-29T08:42:41.666Z,77.08
2018-12-29T08:45:12.209Z,76.87
2018-12-29T08:47:42.418Z,76.77
2018-12-29T08:50:13.514Z,76.59
2018-12-29T08:52:43.759Z,76.31
2018-12-29T08:55:14.237Z,75.82
2018-12-29T08:57:44.335Z,75.78
2018-12-29T09:00:14.887Z,75.54
2018-12-29T09:02:45.156Z,75.49
2018-12-29T09:05:15.618Z,75.50
2018-12-29T09:07:45.805Z,75.33
2018-12-29T09:10:16.332Z,75.36
2018-12-29T09:12:46.500Z,75.54
2018-12-29T09:15:16.907Z,75.71
2018-12-29T09:17:47.118Z,75.80
2018-12-29T09:20:17.685Z,75.90
2018-12-29T09:22:47.785Z,75.82
2018-12-29T09:25:17.930Z,75.84
2018-12-29T09:27:48.060Z,75.74
2018-12-29T09:30:18.196Z,75.57
2018-12-29T09:32:48.402Z,75.17
2018-12-29T09:35:18.703Z,75.25
2018-12-29T09:37:48.872Z,75.07
2018-12-29T09:40:19.009Z,75.27
2018-12-29T09:42:49.115Z,75.24
2018-12-29T09:45:19.602Z,75.26
2018-12-29T09:47:50.766Z,75.14
2018-12-29T09:50:21.259Z,75.22
2018-12-29T09:52:51.391Z,75.41
2018-12-29T09:55:21.690Z,75.51
2018-12-29T09:57:52.861Z,75.52
2018-12-29T10:00:23.041Z,75.56
2018-12-29T10:02:53.186Z,75.56
2018-12-29T10:05:23.486Z,75.45
2018-12-29T10:07:53.772Z,75.55
2018-12-29T10:10:23.928Z,75.50
2018-12-29T10:12:54.111Z,75.58
2018-12-29T10:15:25.884Z,75.74
2018-12-29T10:17:56.153Z,75.70
2018-12-29T10:20:26.687Z,75.81
2018-12-29T10:22:57.014Z,76.03
2018-12-29T10:25:27.210Z,76.00
2018-12-29T10:27:57.401Z,75.67
2018-12-29T10:30:27.933Z,75.26
2018-12-29T10:32:58.259Z,75.19
2018-12-29T10:35:28.673Z,75.21
2018-12-29T10:37:59.846Z,74.87
2018-12-29T10:40:31.526Z,74.85
2018-12-29T10:43:01.763Z,74.79
2018-12-29T10:45:32.694Z,74.93
2018-12-29T10:48:02.806Z,74.97
2018-12-29T10:50:32.965Z,75.10
2018-12-29T10:53:03.265Z,75.11
2018-12-29T10:55:33.420Z,75.09
2018-12-29T10:58:05.148Z,75.07
2018-12-29T11:00:35.417Z,75.21
2018-12-29T11:03:05.711Z,75.11
2018-12-29T11:05:35.890Z,75.12
2018-12-29T11:08:06.067Z,75.05
2018-12-29T11:10:36.219Z,75.24
2018-12-29T11:13:06.481Z,75.13
2018-12-29T11:15:36.624Z,74.82
2018-12-29T11:18:06.742Z,74.94
2018-12-29T11:20:37.276Z,74.09
2018-12-29T11:23:07.373Z,73.74
2018-12-29T11:25:37.872Z,73.33
2018-12-29T11:28:07.985Z,73.31
2018-12-29T11:30:39.085Z,73.32
2018-12-29T11:33:09.197Z,73.20
2018-12-29T11:35:39.326Z,73.29
2018-12-29T11:38:09.491Z,73.40
2018-12-29T11:41:00.503Z,73.51
2018-12-29T11:43:30.629Z,73.43
2018-12-29T11:46:00.829Z,73.48
2018-12-29T11:48:32.765Z,73.30
2018-12-29T11:51:03.045Z,73.31
2018-12-29T11:53:33.437Z,73.00
2018-12-29T11:56:03.565Z,72.73
2018-12-29T11:58:33.684Z,73.02
2018-12-29T12:01:03.824Z,72.90
2018-12-29T12:03:34.049Z,72.95
2018-12-29T12:06:04.172Z,72.57
2018-12-29T12:08:34.339Z,71.95
2018-12-29T12:11:04.497Z,72.49
2018-12-29T12:13:34.592Z,72.62
2018-12-29T12:16:04.938Z,72.72
2018-12-29T12:18:35.041Z,72.51
2018-12-29T12:21:05.223Z,72.65
2018-12-29T12:23:35.344Z,72.48
2018-12-29T12:26:05.641Z,72.71
2018-12-29T12:28:35.741Z,72.59
2018-12-29T12:31:05.873Z,71.85
2018-12-29T12:33:35.989Z,72.36
2018-12-29T12:36:06.295Z,72.76
2018-12-29T12:38:36.545Z,72.54
2018-12-29T12:41:07.863Z,72.78
2018-12-29T12:43:38.070Z,72.91
2018-12-29T12:46:08.482Z,72.99
2018-12-29T12:48:38.576Z,73.01
2018-12-29T12:51:08.713Z,73.15
2018-12-29T12:53:38.941Z,73.21
2018-12-29T12:56:09.112Z,73.25
2018-12-29T12:58:39.445Z,73.35
2018-12-29T13:01:09.844Z,73.40
2018-12-29T13:03:40.945Z,73.44
2018-12-29T13:06:11.086Z,73.63
2018-12-29T13:08:41.213Z,73.57
2018-12-29T13:11:11.779Z,73.52
2018-12-29T13:13:42.264Z,73.64
2018-12-29T13:16:12.542Z,73.52
2018-12-29T13:18:42.667Z,73.43
2018-12-29T13:21:12.869Z,73.46
2018-12-29T13:23:42.985Z,73.48
2018-12-29T13:26:13.120Z,73.61
2018-12-29T13:28:43.233Z,73.59
2018-12-29T13:31:13.424Z,73.69
2018-12-29T13:33:43.743Z,73.68
2018-12-29T13:36:14.910Z,73.67
2018-12-29T13:38:48.554Z,73.68
2018-12-29T13:41:18.681Z,73.69
2018-12-29T13:43:48.780Z,73.81
2018-12-29T13:46:19.001Z,73.78
2018-12-29T13:48:49.116Z,73.79
2018-12-29T13:51:19.322Z,73.86
2018-12-29T13:53:49.491Z,73.85
2018-12-29T13:56:23.851Z,73.94
2018-12-29T13:58:53.972Z,74.04
2018-12-29T14:01:24.099Z,74.11
2018-12-29T14:03:54.206Z,74.39
2018-12-29T14:06:24.329Z,74.62
2018-12-29T14:08:54.507Z,74.38
2018-12-29T14:11:25.385Z,73.98
2018-12-29T14:13:55.495Z,73.90
2018-12-29T14:16:25.618Z,74.00
2018-12-29T14:18:56.025Z,74.02
2018-12-29T14:21:27.660Z,74.15
2018-12-29T14:23:57.754Z,74.14
2018-12-29T14:26:28.197Z,74.19
2018-12-29T14:28:58.347Z,74.52
2018-12-29T14:31:28.552Z,74.53
2018-12-29T14:33:59.742Z,74.47
2018-12-29T14:36:29.866Z,74.44
2018-12-29T14:38:59.969Z,74.49
2018-12-29T14:41:30.108Z,74.53
2018-12-29T14:44:00.208Z,74.61
2018-12-29T14:46:30.524Z,74.71
2018-12-29T14:49:00.632Z,74.73
2018-12-29T14:51:31.235Z,74.71
2018-12-29T14:54:01.469Z,74.70
2018-12-29T14:56:31.604Z,74.81
2018-12-29T14:59:01.753Z,74.92
2018-12-29T15:01:31.897Z,74.91
2018-12-29T15:04:02.007Z,75.04
2018-12-29T15:06:32.129Z,75.09
2018-12-29T15:09:02.232Z,75.04
2018-12-29T15:11:33.433Z,75.06
2018-12-29T15:14:03.528Z,75.05
2018-12-29T15:16:34.025Z,75.03
2018-12-29T15:19:04.188Z,74.97
2018-12-29T15:21:35.055Z,75.01
2018-12-29T15:24:05.157Z,75.01
2018-12-29T15:26:35.299Z,74.98
2018-12-29T15:29:05.421Z,74.89
2018-12-29T15:31:35.552Z,74.86
2018-12-29T15:34:05.667Z,74.92
2018-12-29T15:36:36.485Z,74.80
2018-12-29T15:39:07.739Z,74.84
2018-12-29T15:41:37.878Z,74.84
2018-12-29T15:44:08.266Z,74.95
2018-12-29T15:46:38.399Z,74.88
2018-12-29T15:49:08.811Z,74.93
2018-12-29T15:51:39.354Z,74.85
2018-12-29T15:54:09.485Z,74.97
2018-12-29T15:56:39.993Z,75.06
2018-12-29T15:59:10.110Z,75.12
2018-12-29T16:01:40.230Z,75.15
2018-12-29T16:04:10.336Z,75.03
2018-12-29T16:06:40.464Z,75.00
2018-12-29T16:09:10.555Z,74.99
2018-12-29T16:11:41.404Z,75.09
2018-12-29T16:14:11.490Z,75.10
2018-12-29T16:16:41.890Z,75.07
2018-12-29T16:19:12.012Z,75.07
2018-12-29T16:21:42.185Z,75.22
2018-12-29T16:24:12.557Z,75.32
2018-12-29T16:26:42.692Z,75.48
2018-12-29T16:29:12.789Z,75.42
2018-12-29T16:31:43.307Z,75.25
2018-12-29T16:34:13.753Z,75.09
2018-12-29T16:36:44.261Z,75.18
2018-12-29T16:39:14.364Z,75.12
2018-12-29T16:41:44.505Z,75.12
2018-12-29T16:44:14.604Z,75.26
2018-12-29T16:46:44.726Z,75.26
2018-12-29T16:49:14.833Z,75.21
2018-12-29T16:51:44.972Z,75.16
2018-12-29T16:54:15.088Z,75.25
2018-12-29T16:56:45.529Z,75.23
2018-12-29T16:59:15.642Z,75.16
2018-12-29T17:01:45.772Z,75.08
2018-12-29T17:04:15.885Z,75.03
2018-12-29T17:06:46.017Z,75.12
2018-12-29T17:09:16.410Z,75.17
2018-12-29T17:11:52.356Z,75.05
2018-12-29T17:14:18.363Z,75.03
2018-12-29T17:16:48.647Z,75.06
2018-12-29T17:19:18.789Z,75.13
2018-12-29T17:21:49.379Z,75.15
2018-12-29T17:24:19.484Z,75.02
2018-12-29T17:26:49.922Z,75.05
2018-12-29T17:29:21.808Z,75.01
2018-12-29T17:31:52.210Z,75.01
2018-12-29T17:34:22.321Z,75.08
2018-12-29T17:36:52.818Z,75.15
2018-12-29T17:39:22.945Z,75.14
2018-12-29T17:41:53.137Z,75.09
2018-12-29T17:44:23.241Z,75.10
2018-12-29T17:46:53.383Z,75.11
2018-12-29T17:49:23.491Z,75.13
2018-12-29T17:51:54.409Z,75.27
2018-12-29T17:54:24.524Z,75.47
2018-12-29T17:56:54.669Z,75.48
2018-12-29T17:59:24.884Z,75.59
2018-12-29T18:01:55.801Z,75.60
2018-12-29T18:04:25.910Z,75.96
2018-12-29T18:06:56.103Z,76.48
2018-12-29T18:09:26.241Z,76.44
2018-12-29T18:11:56.998Z,76.45
2018-12-29T18:14:27.182Z,76.19
2018-12-29T18:16:57.423Z,77.02
2018-12-29T18:19:30.598Z,77.73
2018-12-29T18:21:59.797Z,77.76
2018-12-29T18:24:30.082Z,78.02
2018-12-29T18:27:00.212Z,77.67
2018-12-29T18:29:30.449Z,77.59
2018-12-29T18:32:00.948Z,77.66
2018-12-29T18:34:31.093Z,77.67
2018-12-29T18:37:01.235Z,77.90
2018-12-29T18:39:33.028Z,78.06
2018-12-29T18:42:03.238Z,78.73
2018-12-29T18:44:33.409Z,78.54
2018-12-29T18:47:04.028Z,78.38
2018-12-29T18:49:38.434Z,78.40
2018-12-29T18:52:06.238Z,78.93
2018-12-29T18:54:36.519Z,78.22
2018-12-29T18:57:06.735Z,78.25
2018-12-29T18:59:36.919Z,77.98
2018-12-29T19:02:07.353Z,77.44
2018-12-29T19:04:37.945Z,77.28
2018-12-29T19:07:08.106Z,77.24
2018-12-29T19:09:38.230Z,77.35
2018-12-29T19:12:11.321Z,77.62
2018-12-29T19:14:40.168Z,77.56
2018-12-29T19:17:10.332Z,77.94
2018-12-29T19:19:46.260Z,78.26
2018-12-29T19:22:12.723Z,78.40
2018-12-29T19:24:42.828Z,77.90
2018-12-29T19:27:12.973Z,77.87
2018-12-29T19:29:44.815Z,77.77
2018-12-29T19:32:15.359Z,77.51
2018-12-29T19:34:45.845Z,77.41
2018-12-29T19:37:16.356Z,77.47
2018-12-29T19:39:46.475Z,77.98
2018-12-29T19:42:16.638Z,78.10
2018-12-29T19:44:46.832Z,78.18
2018-12-29T19:47:17.466Z,77.60
2018-12-29T19:49:53.620Z,77.21
2018-12-29T19:52:19.530Z,76.99
2018-12-29T19:54:49.680Z,76.87
2018-12-29T19:57:20.145Z,76.87
2018-12-29T19:59:50.280Z,77.04
2018-12-29T20:02:20.810Z,77.45
2018-12-29T20:04:51.179Z,77.45
2018-12-29T20:07:21.812Z,77.76
2018-12-29T20:09:51.973Z,77.63
2018-12-29T20:12:22.112Z,77.93
2018-12-29T20:14:52.214Z,78.52
2018-12-29T20:17:23.727Z,79.08
2018-12-29T20:20:01.255Z,79.18
2018-12-29T20:22:26.169Z,78.89
2018-12-29T20:24:56.654Z,79.03
2018-12-29T20:27:26.814Z,78.91
2018-12-29T20:29:56.933Z,78.95
2018-12-29T20:32:28.586Z,78.53
2018-12-29T20:34:58.926Z,78.34
2018-12-29T20:37:29.317Z,78.40
2018-12-29T20:39:59.495Z,78.35
2018-12-29T20:42:29.913Z,78.69
2018-12-29T20:45:00.092Z,79.01
2018-12-29T20:47:31.432Z,79.13
2018-12-29T20:50:09.445Z,79.53
2018-12-29T20:52:34.695Z,79.50
2018-12-29T20:55:04.913Z,79.32
2018-12-29T20:57:35.405Z,79.00
2018-12-29T21:00:08.161Z,79.04
2018-12-29T21:02:38.779Z,79.02
2018-12-29T21:05:09.073Z,78.86
2018-12-29T21:07:39.233Z,78.91
2018-12-29T21:10:09.378Z,78.92
2018-12-29T21:12:39.889Z,79.08
2018-12-29T21:15:10.023Z,79.69
2018-12-29T21:17:41.657Z,79.74
2018-12-29T21:20:17.342Z,80.21
2018-12-29T21:22:44.110Z,80.48
2018-12-29T21:25:14.208Z,80.68
2018-12-29T21:27:44.416Z,80.52
2018-12-29T21:30:14.864Z,80.71
2018-12-29T21:32:45.112Z,80.57
2018-12-29T21:35:15.231Z,79.88
2018-12-29T21:37:45.361Z,79.61
2018-12-29T21:40:15.475Z,79.22
2018-12-29T21:42:45.880Z,78.85
2018-12-29T21:45:15.992Z,78.68
2018-12-29T21:47:46.107Z,78.28
2018-12-29T21:50:16.484Z,78.00
2018-12-29T21:52:47.009Z,77.68
2018-12-29T21:55:17.098Z,77.91
2018-12-29T21:57:47.251Z,77.86
2018-12-29T22:00:17.473Z,77.70
2018-12-29T22:02:47.659Z,77.61
2018-12-29T22:05:18.943Z,77.43
2018-12-29T22:07:49.160Z,77.22
2018-12-29T22:10:19.269Z,77.18
2018-12-29T22:12:50.562Z,77.11
2018-12-29T22:15:20.661Z,77.13
2018-12-29T22:17:50.789Z,77.00
2018-12-29T22:20:20.897Z,76.90
2018-12-29T22:22:51.184Z,76.76
2018-12-29T22:25:23.093Z,76.84
2018-12-29T22:27:53.345Z,76.89
2018-12-29T22:30:23.989Z,77.00
2018-12-29T22:32:54.637Z,77.26
2018-12-29T22:35:24.754Z,77.47
2018-12-29T22:37:54.903Z,76.96
2018-12-29T22:40:25.007Z,76.59
2018-12-29T22:42:55.349Z,76.46
2018-12-29T22:45:25.469Z,76.34
2018-12-29T22:47:56.742Z,76.35
2018-12-29T22:50:26.840Z,76.38
2018-12-29T22:52:56.973Z,76.48
2018-12-29T22:55:27.091Z,76.47
2018-12-29T22:57:57.218Z,76.49
2018-12-29T23:00:41.419Z,76.55
2018-12-29T23:03:11.580Z,76.56
2018-12-29T23:05:41.783Z,76.61
2018-12-29T23:08:13.411Z,76.71
2018-12-29T23:10:43.689Z,76.73
2018-12-29T23:13:14.167Z,76.66
2018-12-29T23:15:44.296Z,76.63
2018-12-29T23:18:14.416Z,76.61
2018-12-29T23:20:48.956Z,76.65
2018-12-29T23:23:17.005Z,76.47
2018-12-29T23:25:47.419Z,76.48
2018-12-29T23:28:17.725Z,76.56
2018-12-29T23:30:48.901Z,76.41
2018-12-29T23:33:19.018Z,76.41
2018-12-29T23:35:49.177Z,76.37
2018-12-29T23:38:19.304Z,76.36
2018-12-29T23:40:49.408Z,76.40
2018-12-29T23:43:19.535Z,76.52
2018-12-29T23:45:49.644Z,76.66
2018-12-29T23:48:19.771Z,76.75
2018-12-29T23:50:49.876Z,76.77
2018-12-29T23:53:20.374Z,77.01
2018-12-29T23:55:50.783Z,77.31
2018-12-29T23:58:21.226Z,77.56
